Patterson, Iowa
Current Conditions -  °F | °C
As of 2:54 AM on Wednesday 26 Nov 2014 (Local Time) from KDSM Reporting Station
Light Snow Light Snow  
Wind Chill: 21°   Ceiling: 1100
Heat Index: 30°   Visibility: 1.7mi
Dew Point: 27°   Wind: 10mph
Humidity: 88%   Direction: 150°SSE
Pressure: 29.94"   Gusts: NA
Location:  41.35°N, 93.88°W
Report Text: KDSM 260854Z 15009KT 1 3/4SM -SN BR OVC011 M01/M03 A2994 RMK AO2 SNB0755 SLP148 P0002 60002 T10111028 58004
Loading
Personal Weather Stations






























Interactive Weather Map New forecast layout! Learn more

10-Day Weather Forecast

Advertisements
Track Severe Weather on mobile